Time;durP1;ratioP1;P1;durP2;ratioP2;P2;SDS_P1;SDS_P2;PMS_P1;PMS_P2;Temp;Humidity;BMP_temperature;BMP_pressure;BME280_temperature;BME280_humidity;BME280_pressure;Samples;Min_cycle;Max_cycle;Signal;HPM_P1;HPM_P2
2021/07/25 00:02:07;;;;;;;8.80;7.83;;;;;;;19.72;72.27;95041.63;4868531;29;20814;-83
2021/07/25 00:04:34;;;;;;;10.50;9.10;;;;;;;18.83;76.29;95038.69;4900783;29;20974;-84
2021/07/25 00:07:02;;;;;;;9.57;8.60;;;;;;;18.58;77.27;95042.47;4868226;29;20461;-83
2021/07/25 00:09:29;;;;;;;9.90;9.00;;;;;;;18.62;77.34;95032.31;4901333;29;20454;-83
2021/07/25 00:11:56;;;;;;;13.67;9.50;;;;;;;18.57;77.62;95032.84;4852639;29;20496;-83
2021/07/25 00:14:23;;;;;;;10.40;9.30;;;;;;;18.58;77.73;95032.69;4900568;29;20458;-83
2021/07/25 00:16:50;;;;;;;12.67;9.03;;;;;;;18.76;77.57;95045.69;4900675;29;20899;-83
2021/07/25 00:19:17;;;;;;;10.60;9.20;;;;;;;18.93;76.78;95050.91;4900887;29;20513;-83
2021/07/25 00:21:44;;;;;;;10.60;8.77;;;;;;;19.07;76.21;95053.63;4900565;29;20944;-83
2021/07/25 00:24:13;;;;;;;9.80;8.90;;;;;;;19.22;75.55;95048.38;4901085;29;20803;-83
2021/07/25 00:26:46;;;;;;;10.80;8.30;;;;;;;19.34;74.89;95046.09;4900470;29;20491;-83
2021/07/25 00:29:13;;;;;;;9.23;8.33;;;;;;;19.41;74.49;95041.72;4900791;29;20522;-83
2021/07/25 00:31:40;;;;;;;8.90;8.07;;;;;;;19.37;74.12;95041.25;4900307;29;20486;-83
2021/07/25 00:34:07;;;;;;;9.07;7.83;;;;;;;19.41;73.72;95039.06;4900482;29;20506;-83
2021/07/25 00:36:34;;;;;;;8.60;7.80;;;;;;;19.35;73.88;95037.94;4900440;29;20473;-83
2021/07/25 00:39:01;;;;;;;10.73;8.67;;;;;;;19.23;74.42;95033.22;4900295;29;20439;-83
2021/07/25 00:41:30;;;;;;;10.43;8.73;;;;;;;19.17;74.69;95037.44;4900458;29;20435;-83
2021/07/25 00:43:56;;;;;;;9.77;8.87;;;;;;;19.19;74.55;95032.75;4900542;29;20531;-83
2021/07/25 00:49:45;;;;;;;9.73;8.63;;;;;;;19.21;73.66;95036.06;4900129;29;20424;-83
2021/07/25 00:52:12;;;;;;;8.90;8.10;;;;;;;19.17;73.92;95027.63;4900254;29;20484;-83
2021/07/25 00:54:39;;;;;;;9.47;8.50;;;;;;;19.18;73.96;95037.25;4899844;29;20458;-83
2021/07/25 00:57:08;;;;;;;11.20;9.87;;;;;;;19.22;73.45;95023.59;4900806;29;20451;-83
2021/07/25 00:59:35;;;;;;;8.73;7.93;;;;;;;19.17;73.79;95024.97;4900280;29;20467;-83
2021/07/25 01:02:02;;;;;;;9.37;8.47;;;;;;;19.03;74.28;95019.59;4900116;29;20451;-83
2021/07/25 01:04:40;;;;;;;10.00;8.30;;;;;;;18.97;75.03;95031.78;4852267;29;20446;-83
2021/07/25 01:07:18;;;;;;;8.77;7.90;;;;;;;19.00;75.27;95033.25;4900026;29;20438;-83
2021/07/25 01:09:52;;;;;;;13.23;10.10;;;;;;;18.97;75.63;95030.94;4899798;29;20446;-83
2021/07/25 01:12:25;;;;;;;10.87;8.90;;;;;;;18.89;75.71;95031.84;4899609;29;20482;-82
2021/07/25 01:14:55;;;;;;;9.00;8.10;;;;;;;18.78;75.56;95018.94;4899869;29;20542;-83
2021/07/25 01:17:31;;;;;;;10.17;9.17;;;;;;;18.80;75.61;95030.25;4899777;29;20456;-82
2021/07/25 01:20:00;;;;;;;9.97;8.83;;;;;;;18.69;75.91;95020.00;4899667;29;20441;-83
2021/07/25 01:22:30;;;;;;;10.27;8.30;;;;;;;18.65;76.29;95019.53;4899500;29;20467;-82
2021/07/25 01:24:57;;;;;;;10.63;9.20;;;;;;;18.66;76.06;95025.69;4899608;29;20887;-83
2021/07/25 01:27:31;;;;;;;9.87;8.90;;;;;;;18.53;76.82;95012.94;4898909;29;20549;-83
2021/07/25 01:30:00;;;;;;;12.57;8.90;;;;;;;18.37;76.96;95011.19;4899808;29;20449;-84
2021/07/25 01:32:29;;;;;;;9.20;8.27;;;;;;;18.38;77.61;95018.16;4899662;29;20523;-83
2021/07/25 01:35:00;;;;;;;9.73;8.70;;;;;;;18.46;77.37;95020.78;4899354;29;20781;-83
2021/07/25 01:37:29;;;;;;;12.03;10.20;;;;;;;18.48;77.25;95016.09;4900119;29;20492;-83
2021/07/25 01:39:56;;;;;;;9.60;8.70;;;;;;;18.46;76.72;95015.47;4899714;29;20450;-83
2021/07/25 01:42:30;;;;;;;10.03;9.07;;;;;;;18.50;76.36;95011.47;4899357;29;20459;-83
2021/07/25 01:44:58;;;;;;;10.70;9.40;;;;;;;18.55;76.80;95017.09;4899391;29;20554;-83
2021/07/25 01:47:25;;;;;;;9.93;9.03;;;;;;;18.56;76.59;95013.41;4898989;29;20790;-83
2021/07/25 01:49:52;;;;;;;10.07;9.10;;;;;;;18.65;76.09;95016.06;4898901;29;20959;-83
2021/07/25 01:52:20;;;;;;;11.70;10.07;;;;;;;18.65;76.25;95021.38;4898668;29;20990;-83
2021/07/25 01:54:47;;;;;;;10.33;9.40;;;;;;;18.68;76.22;95021.00;4899161;29;20532;-83
2021/07/25 01:57:14;;;;;;;11.83;8.10;;;;;;;18.67;75.82;95020.19;4850931;29;20445;-83
2021/07/25 01:59:41;;;;;;;9.10;8.20;;;;;;;18.64;75.60;95017.88;4898636;29;20462;-83
2021/07/25 02:02:08;;;;;;;13.17;9.00;;;;;;;18.54;75.61;95010.13;4898931;29;20467;-83
2021/07/25 02:04:35;;;;;;;12.30;8.80;;;;;;;18.53;76.21;95013.78;4898790;29;20439;-83
2021/07/25 02:07:02;;;;;;;9.70;8.77;;;;;;;18.57;75.46;95020.41;4898645;29;20448;-83
2021/07/25 02:16:14;;;;;;;10.00;9.00;;;;;;;18.35;76.45;95028.31;4897830;29;20481;-82
2021/07/25 02:18:41;;;;;;;10.30;9.33;;;;;;;18.46;76.36;95038.53;4898569;29;20940;-82
2021/07/25 02:21:08;;;;;;;9.33;8.47;;;;;;;18.57;75.54;95040.81;4898769;29;20527;-83
2021/07/25 02:23:35;;;;;;;11.40;9.00;;;;;;;18.63;75.07;95039.31;4899001;29;20464;-82
2021/07/25 02:26:02;;;;;;;10.37;8.30;;;;;;;18.60;75.64;95045.78;4898684;29;20545;-83
2021/07/25 02:28:29;;;;;;;10.40;9.33;;;;;;;18.64;75.57;95043.63;4898328;29;20445;-83
2021/07/25 02:30:56;;;;;;;11.00;8.80;;;;;;;18.66;75.19;95046.94;4850528;29;20518;-83
2021/07/25 02:33:24;;;;;;;10.33;9.20;;;;;;;18.73;75.34;95048.72;4850352;29;20490;-82
2021/07/25 02:35:51;;;;;;;10.07;8.33;;;;;;;18.79;74.56;95040.06;4898571;29;21095;-82
2021/07/25 02:38:18;;;;;;;9.90;9.00;;;;;;;18.76;74.71;95042.22;4898299;29;20494;-83
2021/07/25 02:40:45;;;;;;;9.67;8.73;;;;;;;18.76;74.70;95045.69;4898267;29;20460;-83
2021/07/25 02:43:11;;;;;;;10.80;9.23;;;;;;;18.75;74.94;95040.56;4898225;29;20999;-83
2021/07/25 02:45:38;;;;;;;11.90;9.40;;;;;;;18.61;75.05;95049.28;4898176;29;20461;-81
2021/07/25 02:48:06;;;;;;;11.37;10.30;;;;;;;18.56;75.54;95033.84;4898123;29;20448;-81
2021/07/25 02:50:35;;;;;;;11.67;9.57;;;;;;;18.46;75.59;95033.22;4898352;29;20449;-81
2021/07/25 02:53:02;;;;;;;12.67;9.97;;;;;;;18.43;75.90;95038.91;4898028;29;21082;-81
2021/07/25 02:55:28;;;;;;;12.33;10.00;;;;;;;18.29;75.97;95031.69;4898032;29;20449;-82
2021/07/25 02:57:55;;;;;;;11.17;9.90;;;;;;;18.13;76.33;95040.53;4898289;29;20476;-81
2021/07/25 03:00:22;;;;;;;11.43;8.80;;;;;;;18.04;77.03;95037.09;4898075;29;20941;-82
2021/07/25 03:02:49;;;;;;;9.70;8.70;;;;;;;17.83;77.57;95026.22;4897983;29;20525;-82
2021/07/25 03:05:16;;;;;;;9.97;8.97;;;;;;;17.72;78.47;95023.94;4898167;29;20469;-82
2021/07/25 03:07:45;;;;;;;10.43;9.33;;;;;;;17.70;78.71;95021.47;4897808;29;20536;-81
2021/07/25 03:10:12;;;;;;;11.93;10.30;;;;;;;17.59;78.82;95035.03;4898254;29;20528;-82
2021/07/25 03:12:39;;;;;;;17.13;10.20;;;;;;;17.62;78.91;95024.06;4898964;29;20503;-81
2021/07/25 03:15:07;;;;;;;11.47;10.10;;;;;;;17.57;79.03;95034.38;4898169;29;20456;-81
2021/07/25 03:17:34;;;;;;;11.03;9.70;;;;;;;17.61;78.92;95038.34;4865556;29;20823;-82
2021/07/25 03:20:01;;;;;;;10.10;8.83;;;;;;;17.64;78.24;95043.34;4897806;29;20442;-81
2021/07/25 03:22:28;;;;;;;10.50;8.20;;;;;;;17.72;78.21;95050.47;4898186;29;20444;-81
2021/07/25 03:24:56;;;;;;;11.27;9.40;;;;;;;17.81;78.12;95052.94;4865492;29;20523;-82
2021/07/25 03:27:23;;;;;;;9.60;8.40;;;;;;;17.88;77.06;95048.59;4897870;29;20537;-81
2021/07/25 03:29:50;;;;;;;10.43;8.70;;;;;;;18.02;77.02;95051.56;4897948;29;20460;-81
2021/07/25 03:32:18;;;;;;;9.63;8.70;;;;;;;18.18;76.83;95056.78;4897814;29;20526;-81
2021/07/25 03:34:45;;;;;;;10.47;8.77;;;;;;;18.38;75.35;95052.72;4897999;29;20442;-81
2021/07/25 03:37:13;;;;;;;9.93;8.93;;;;;;;18.28;75.42;95060.06;4898341;29;20485;-81
2021/07/25 03:39:42;;;;;;;11.10;9.87;;;;;;;18.38;75.27;95063.34;4898264;29;20442;-81
2021/07/25 03:42:11;;;;;;;9.33;8.43;;;;;;;18.50;75.30;95067.28;4897883;29;20501;-81
2021/07/25 03:44:38;;;;;;;11.40;9.43;;;;;;;18.65;75.28;95074.53;4897698;29;20445;-83
2021/07/25 03:47:05;;;;;;;10.33;9.30;;;;;;;18.77;73.95;95084.56;4897947;29;20443;-81
2021/07/25 03:49:32;;;;;;;9.90;9.07;;;;;;;18.85;73.51;95081.91;4897924;29;20555;-81
2021/07/25 03:52:00;;;;;;;12.40;8.47;;;;;;;19.01;73.77;95080.09;4901241;29;20508;-81
2021/07/25 03:54:27;;;;;;;10.50;9.40;;;;;;;19.11;73.04;95081.56;4901141;29;20533;-81
2021/07/25 03:56:54;;;;;;;9.90;8.60;;;;;;;19.25;72.79;95081.78;4901135;29;20823;-81
2021/07/25 03:59:22;;;;;;;9.83;8.83;;;;;;;19.27;72.34;95091.22;4852978;29;20454;-80
2021/07/25 04:08:32;;;;;;;9.03;8.13;;;;;;;20.37;67.66;95097.66;4899712;29;20435;-81
2021/07/25 04:10:59;;;;;;;12.47;7.80;;;;;;;20.89;65.64;95090.53;4900732;29;20457;-82
2021/07/25 04:13:26;;;;;;;8.50;7.60;;;;;;;21.43;64.14;95101.56;4901029;29;20496;-81
2021/07/25 04:15:55;;;;;;;9.73;8.10;;;;;;;22.00;61.38;95105.94;4900092;29;20830;-81
2021/07/25 04:18:22;;;;;;;13.63;8.47;;;;;;;22.37;59.45;95099.41;4852853;29;20445;-82
2021/07/25 04:20:48;;;;;;;8.43;7.63;;;;;;;22.68;58.47;95106.97;4900926;29;20444;-82
2021/07/25 04:33:23;;;;;;;7.53;6.50;;;;;;;23.76;54.40;95106.03;4899480;29;21051;-82
2021/07/25 04:35:50;;;;;;;8.10;7.30;;;;;;;23.95;54.55;95104.38;4900231;29;20453;-82
2021/07/25 04:38:18;;;;;;;9.10;7.90;;;;;;;24.23;53.79;95114.03;4900823;29;20479;-82
2021/07/25 04:40:50;;;;;;;8.13;7.33;;;;;;;24.54;52.11;95111.53;4901043;29;20438;-82
2021/07/25 04:43:22;;;;;;;7.17;6.50;;;;;;;24.84;51.68;95111.00;4852362;29;20456;-83
2021/07/25 04:45:54;;;;;;;7.90;7.17;;;;;;;24.98;50.93;95118.84;4900361;29;20934;-82
2021/07/25 04:48:30;;;;;;;10.17;8.03;;;;;;;25.01;51.04;95115.72;4900322;29;20461;-82
2021/07/25 04:51:05;;;;;;;7.10;6.33;;;;;;;25.18;50.73;95116.06;4899974;29;20463;-81
2021/07/25 04:53:37;;;;;;;7.87;7.00;;;;;;;25.41;50.38;95111.97;4900095;29;20551;-82
2021/07/25 04:56:05;;;;;;;8.83;7.83;;;;;;;25.63;49.53;95110.59;4901099;29;20448;-82
2021/07/25 04:58:43;;;;;;;9.83;8.93;;;;;;;25.86;49.67;95116.25;4900417;29;20811;-82
2021/07/25 05:01:14;;;;;;;8.20;7.50;;;;;;;26.12;48.47;95117.91;4900078;29;20547;-82
2021/07/25 05:03:43;;;;;;;9.20;8.10;;;;;;;26.23;47.87;95119.03;4899829;29;20449;-82
2021/07/25 05:06:13;;;;;;;8.23;7.43;;;;;;;26.28;48.00;95124.56;4900047;29;20459;-82
2021/07/25 05:08:40;;;;;;;8.33;6.60;;;;;;;26.39;47.67;95118.50;4900281;29;20431;-82
2021/07/25 05:11:13;;;;;;;8.03;7.27;;;;;;;26.60;47.22;95127.19;4899954;29;20531;-81
2021/07/25 05:13:45;;;;;;;8.30;7.60;;;;;;;26.76;47.25;95124.72;4899665;29;20862;-82
2021/07/25 05:16:22;;;;;;;12.20;7.50;;;;;;;27.00;46.56;95124.91;4900037;29;20441;-82
2021/07/25 05:19:05;;;;;;;7.97;7.37;;;;;;;27.13;46.05;95125.53;4899969;29;20544;-82
2021/07/25 05:21:38;;;;;;;8.33;7.23;;;;;;;27.33;45.44;95116.38;4899446;29;20943;-82
2021/07/25 05:24:08;;;;;;;8.43;7.63;;;;;;;27.42;45.93;95115.00;4899672;29;20528;-82
2021/07/25 05:26:37;;;;;;;7.70;7.00;;;;;;;27.59;44.80;95126.78;4900226;29;20471;-82
2021/07/25 05:29:04;;;;;;;9.03;7.60;;;;;;;27.58;44.39;95124.34;4899338;29;20528;-82
2021/07/25 05:31:33;;;;;;;8.10;7.40;;;;;;;27.62;44.48;95118.28;4899633;29;20528;-82
2021/07/25 05:34:03;;;;;;;7.20;6.50;;;;;;;27.73;44.54;95125.56;4899821;29;20572;-82
2021/07/25 05:36:30;;;;;;;8.07;7.30;;;;;;;27.85;44.88;95124.78;4899071;29;20445;-82
2021/07/25 05:38:58;;;;;;;8.80;7.90;;;;;;;28.09;43.97;95129.16;4899699;29;20463;-81
2021/07/25 05:41:25;;;;;;;8.83;7.60;;;;;;;28.12;44.05;95122.50;4899696;29;20433;-82
2021/07/25 05:43:52;;;;;;;11.87;8.47;;;;;;;28.20;43.67;95125.66;4899470;29;20468;-82
2021/07/25 05:46:19;;;;;;;10.00;8.50;;;;;;;27.88;44.84;95132.41;4898940;29;20459;-82
2021/07/25 05:48:46;;;;;;;12.70;7.90;;;;;;;27.06;47.34;95129.38;4899249;29;20463;-81
2021/07/25 05:51:14;;;;;;;9.57;8.60;;;;;;;26.93;48.67;95130.34;4899077;29;20464;-82
2021/07/25 05:53:41;;;;;;;9.50;8.50;;;;;;;26.44;50.11;95123.22;4899447;29;20550;-82
2021/07/25 05:56:09;;;;;;;10.03;9.10;;;;;;;25.77;51.84;95131.03;4899003;29;20969;-82
2021/07/25 05:58:36;;;;;;;11.07;8.77;;;;;;;25.52;52.93;95130.94;4898780;29;20457;-82
2021/07/25 06:01:03;;;;;;;9.60;8.67;;;;;;;25.91;52.55;95137.09;4866071;29;20485;-82
2021/07/25 06:03:30;;;;;;;9.03;7.70;;;;;;;26.30;51.05;95135.94;4899188;29;20531;-82
2021/07/25 06:05:57;;;;;;;9.93;8.93;;;;;;;26.86;49.80;95133.09;4898691;29;20449;-82
2021/07/25 06:08:25;;;;;;;13.10;8.97;;;;;;;26.85;46.79;95125.25;4898788;29;20475;-83
2021/07/25 06:10:52;;;;;;;10.93;9.23;;;;;;;26.94;47.66;95125.78;4898554;29;20490;-82
2021/07/25 06:13:19;;;;;;;10.17;8.80;;;;;;;27.02;47.51;95129.00;4850270;29;20503;-82
2021/07/25 06:15:48;;;;;;;9.03;8.20;;;;;;;27.40;48.41;95133.28;4898477;29;20485;-82
2021/07/25 06:18:15;;;;;;;11.90;9.13;;;;;;;27.93;48.49;95144.16;4898752;29;20441;-82
2021/07/25 06:20:42;;;;;;;9.73;8.80;;;;;;;28.30;46.99;95138.59;4898212;29;20437;-83
2021/07/25 06:23:11;;;;;;;9.43;8.43;;;;;;;28.50;45.67;95140.94;4897479;29;20459;-83
2021/07/25 06:25:39;;;;;;;8.40;7.60;;;;;;;28.69;44.79;95148.69;4898064;29;20528;-82
2021/07/25 06:28:06;;;;;;;11.37;8.70;;;;;;;28.87;44.51;95146.94;4897379;29;20970;-83
2021/07/25 06:30:34;;;;;;;9.87;8.87;;;;;;;28.70;43.84;95146.81;4897764;29;20455;-82
2021/07/25 06:33:02;;;;;;;13.67;9.83;;;;;;;28.21;45.32;95143.50;4897995;29;20858;-82
2021/07/25 06:35:31;;;;;;;11.20;8.53;;;;;;;28.21;45.20;95138.09;4897977;29;20453;-82
2021/07/25 06:37:59;;;;;;;10.40;9.03;;;;;;;27.71;45.24;95146.56;4861334;29;20490;-82
2021/07/25 06:40:28;;;;;;;10.60;8.13;;;;;;;27.70;45.92;95149.47;4878841;29;20520;-82
2021/07/25 06:42:58;;;;;;;9.13;8.33;;;;;;;27.90;44.68;95149.19;4878884;29;20463;-82
2021/07/25 06:45:26;;;;;;;10.67;8.63;;;;;;;27.99;45.72;95151.31;4879152;29;20464;-81
2021/07/25 06:47:53;;;;;;;9.10;7.97;;;;;;;28.26;44.18;95156.31;4878900;29;20449;-82
2021/07/25 06:50:21;;;;;;;9.43;8.20;;;;;;;28.46;43.85;95153.28;4878582;29;21001;-82
2021/07/25 06:52:49;;;;;;;8.83;7.70;;;;;;;28.57;43.46;95152.44;4879116;29;20460;-82
2021/07/25 06:55:17;;;;;;;8.90;7.83;;;;;;;28.96;43.12;95146.34;4861927;29;20527;-82
2021/07/25 06:57:43;;;;;;;8.23;7.43;;;;;;;29.41;42.85;95148.31;4879839;29;20799;-82
2021/07/25 07:00:13;;;;;;;8.50;7.70;;;;;;;29.75;41.96;95137.59;4879332;29;20930;-83
2021/07/25 07:02:48;;;;;;;8.30;7.60;;;;;;;30.01;41.05;95139.69;4879962;29;20804;-83
2021/07/25 07:05:15;;;;;;;8.83;7.77;;;;;;;30.23;40.35;95145.25;4879386;29;20429;-82
2021/07/25 07:07:42;;;;;;;11.93;8.50;;;;;;;30.20;40.75;95141.13;4879224;29;20458;-82
2021/07/25 07:10:10;;;;;;;8.57;7.80;;;;;;;30.45;40.76;95129.06;4879227;29;20460;-82
2021/07/25 07:12:37;;;;;;;11.00;8.60;;;;;;;30.64;40.84;95141.28;4847018;29;20442;-83
2021/07/25 07:15:05;;;;;;;13.93;9.83;;;;;;;29.79;41.05;95136.91;4879685;29;20461;-83
2021/07/25 07:17:33;;;;;;;10.30;9.03;;;;;;;29.84;41.74;95133.47;4862049;29;20456;-82
2021/07/25 07:20:00;;;;;;;10.40;9.43;;;;;;;29.55;41.39;95135.38;4879443;29;20449;-82
2021/07/25 07:22:28;;;;;;;11.53;9.70;;;;;;;29.12;43.53;95133.13;4879165;29;20945;-82
2021/07/25 07:24:55;;;;;;;16.97;9.40;;;;;;;28.86;45.29;95131.78;4880002;29;20513;-83
2021/07/25 07:27:22;;;;;;;13.10;10.03;;;;;;;28.79;44.71;95134.59;4882824;29;20536;-83
2021/07/25 07:29:49;;;;;;;12.10;10.10;;;;;;;28.58;44.63;95133.31;4883031;29;20452;-83
2021/07/25 07:32:21;;;;;;;13.77;11.10;;;;;;;28.78;46.07;95141.03;4882955;29;20438;-80
2021/07/25 07:34:50;;;;;;;14.60;12.00;;;;;;;28.74;44.61;95137.19;4882927;29;20488;-81
2021/07/25 07:37:17;;;;;;;11.63;10.50;;;;;;;28.59;44.74;95140.34;4889225;29;20847;-81
2021/07/25 07:39:45;;;;;;;12.63;11.13;;;;;;;28.57;44.47;95136.25;4901506;29;20461;-81
2021/07/25 07:42:13;;;;;;;12.07;10.80;;;;;;;28.72;44.49;95131.19;4901195;29;21253;-81
2021/07/25 07:44:41;;;;;;;12.83;11.10;;;;;;;28.60;44.27;95136.59;4901287;29;20441;-81
2021/07/25 07:47:08;;;;;;;14.37;10.43;;;;;;;28.87;45.34;95131.53;4901292;29;20441;-82
2021/07/25 07:49:35;;;;;;;12.30;11.10;;;;;;;28.48;44.75;95132.25;4901451;29;20455;-83
2021/07/25 07:52:04;;;;;;;13.87;10.87;;;;;;;28.91;45.51;95132.72;4901698;29;20447;-83
2021/07/25 07:54:31;;;;;;;12.60;10.70;;;;;;;29.16;45.72;95124.28;4853064;29;20499;-83
2021/07/25 07:56:58;;;;;;;10.50;9.33;;;;;;;29.30;44.05;95125.69;4868340;29;20463;-83
2021/07/25 07:59:25;;;;;;;20.80;12.40;;;;;;;29.45;43.65;95132.44;4901316;29;20463;-82
2021/07/25 08:01:52;;;;;;;12.80;11.50;;;;;;;29.40;42.64;95135.03;4900861;29;20868;-83
2021/07/25 08:04:19;;;;;;;13.53;11.63;;;;;;;29.55;42.66;95128.06;4900656;29;20457;-81
2021/07/25 08:06:46;;;;;;;14.27;10.50;;;;;;;29.68;43.57;95136.94;4901172;29;20425;-81
2021/07/25 08:09:15;;;;;;;11.10;9.37;;;;;;;29.78;41.72;95137.97;4900707;29;20449;-81
2021/07/25 08:11:45;;;;;;;11.53;10.43;;;;;;;29.86;42.00;95136.75;4900607;29;20555;-81
2021/07/25 08:14:12;;;;;;;10.40;9.40;;;;;;;29.52;42.34;95133.97;4868926;29;20480;-81
2021/07/25 08:16:40;;;;;;;12.60;11.33;;;;;;;29.71;43.33;95141.88;4900651;29;20441;-81
2021/07/25 08:19:07;;;;;;;13.60;10.57;;;;;;;29.97;41.99;95135.84;4900769;29;20445;-81
2021/07/25 08:21:46;;;;;;;11.17;10.07;;;;;;;30.20;41.60;95134.91;4868135;29;20524;-81
2021/07/25 08:24:15;;;;;;;12.57;9.50;;;;;;;30.04;40.32;95131.13;4900767;29;20451;-81
2021/07/25 08:26:42;;;;;;;12.10;10.70;;;;;;;29.78;41.05;95131.69;4900766;29;20444;-81
2021/07/25 08:29:09;;;;;;;12.33;9.53;;;;;;;29.37;41.92;95124.72;4868239;29;20457;-81
2021/07/25 08:31:35;;;;;;;9.60;8.70;;;;;;;29.50;42.64;95136.09;4901053;29;20445;-81
2021/07/25 08:34:03;;;;;;;11.93;9.43;;;;;;;29.77;40.93;95124.66;4900255;29;20477;-81
2021/07/25 08:36:30;;;;;;;9.67;8.77;;;;;;;29.81;41.04;95131.25;4899242;29;20460;-82
2021/07/25 08:38:57;;;;;;;10.47;9.20;;;;;;;29.73;40.69;95126.22;4900209;29;21269;-82
2021/07/25 08:41:47;;;;;;;9.80;8.87;;;;;;;29.33;40.69;95118.97;4900521;29;20540;-81
2021/07/25 08:44:39;;;;;;;12.93;8.40;;;;;;;29.59;40.96;95126.53;4900098;29;20459;-82
2021/07/25 08:47:18;;;;;;;13.43;7.43;;;;;;;29.81;39.45;95120.44;4900669;29;20453;-82
2021/07/25 08:49:54;;;;;;;12.10;8.17;;;;;;;29.97;40.59;95118.78;4900378;29;20462;-82
2021/07/25 08:52:23;;;;;;;10.40;7.60;;;;;;;30.00;40.54;95107.47;4900760;29;20515;-82
2021/07/25 08:54:50;;;;;;;8.43;7.67;;;;;;;30.04;42.08;95106.75;4899951;29;20481;-82
2021/07/25 09:00:47;;;;;;;9.77;7.43;;;;;;;30.04;40.08;95108.63;4900081;29;20408;-81
2021/07/25 09:03:14;;;;;;;8.30;7.50;;;;;;;30.17;38.95;95119.97;4899694;29;20449;-82
2021/07/25 09:05:43;;;;;;;9.10;7.80;;;;;;;30.28;38.65;95106.59;4899868;29;20445;-82
2021/07/25 09:08:11;;;;;;;7.33;6.63;;;;;;;30.40;39.31;95101.91;4899760;29;20890;-82
2021/07/25 09:10:38;;;;;;;9.33;8.53;;;;;;;30.27;39.73;95107.66;4899775;29;20441;-82
2021/07/25 09:13:43;;;;;;;9.23;7.43;;;;;;;29.77;38.75;95108.41;4852012;29;20786;-83
2021/07/25 09:16:11;;;;;;;7.57;6.87;;;;;;;29.44;39.40;95104.59;4866954;29;20588;-82
2021/07/25 09:18:38;;;;;;;8.37;7.57;;;;;;;29.11;39.59;95101.75;4851640;29;20539;-82
2021/07/25 09:21:06;;;;;;;6.90;6.30;;;;;;;29.05;39.28;95100.03;4899970;29;20451;-82
2021/07/25 09:23:32;;;;;;;6.80;6.17;;;;;;;29.33;39.04;95089.22;4899583;29;20465;-82
2021/07/25 09:26:00;;;;;;;6.70;5.77;;;;;;;29.26;37.20;95097.50;4899398;29;20926;-82
2021/07/25 09:28:31;;;;;;;6.83;5.13;;;;;;;28.82;35.35;95090.88;4899619;29;20437;-82
2021/07/25 09:31:13;;;;;;;5.20;4.70;;;;;;;28.54;34.40;95094.34;4899589;29;20472;-82
2021/07/25 09:33:43;;;;;;;7.43;5.33;;;;;;;28.60;37.21;95087.16;4899182;29;21011;-81
2021/07/25 09:36:16;;;;;;;6.13;5.53;;;;;;;28.59;35.29;95083.63;4899458;29;20455;-81
2021/07/25 09:38:45;;;;;;;7.10;6.37;;;;;;;28.75;37.00;95082.09;4899601;29;20488;-81
2021/07/25 09:41:20;;;;;;;6.23;5.67;;;;;;;28.81;36.26;95083.84;4899462;29;20441;-82
2021/07/25 09:43:58;;;;;;;9.97;5.60;;;;;;;28.75;35.21;95092.91;4899009;29;20452;-82
2021/07/25 09:46:27;;;;;;;7.77;4.93;;;;;;;28.77;34.62;95084.56;4899351;29;20456;-82
2021/07/25 09:48:58;;;;;;;7.20;6.33;;;;;;;28.92;34.28;95072.22;4898912;29;20441;-82
2021/07/25 09:51:25;;;;;;;5.80;5.30;;;;;;;28.97;33.77;95072.31;4899306;29;20969;-82
2021/07/25 09:53:53;;;;;;;5.70;5.27;;;;;;;29.13;34.17;95064.50;4899145;29;20540;-82
2021/07/25 09:59:42;;;;;;;13.33;7.20;;;;;;;29.16;32.61;95072.13;4899445;29;20476;-82
2021/07/25 10:02:31;;;;;;;11.90;10.70;;;;;;;29.01;34.74;95071.84;4898754;29;20449;-82
2021/07/25 10:05:10;;;;;;;18.47;10.77;;;;;;;29.12;33.64;95070.97;4898943;29;20440;-82
2021/07/25 10:07:38;;;;;;;8.90;7.20;;;;;;;29.27;34.38;95065.88;4898968;29;20494;-82
2021/07/25 10:10:06;;;;;;;11.23;8.03;;;;;;;29.25;33.80;95068.81;4899067;29;20754;-82
2021/07/25 10:12:35;;;;;;;5.43;5.03;;;;;;;29.29;32.98;95069.16;4865961;29;20453;-82
2021/07/25 10:15:04;;;;;;;5.60;5.10;;;;;;;29.46;34.42;95066.50;4898672;29;20572;-82
2021/07/25 10:17:34;;;;;;;5.33;4.83;;;;;;;29.37;33.44;95068.75;4898613;29;20943;-82
2021/07/25 10:20:02;;;;;;;5.03;4.63;;;;;;;29.25;27.89;95068.00;4898793;29;20884;-82
2021/07/25 10:22:31;;;;;;;4.70;4.30;;;;;;;29.23;29.88;95059.31;4851179;29;20449;-81
2021/07/25 10:24:59;;;;;;;4.73;4.33;;;;;;;29.21;31.36;95062.25;4899119;29;20441;-82
2021/07/25 10:27:27;;;;;;;5.80;5.30;;;;;;;29.16;31.74;95069.41;4898745;29;20446;-82
2021/07/25 10:29:54;;;;;;;6.00;5.40;;;;;;;29.27;30.45;95060.47;4898753;29;20797;-82
2021/07/25 10:32:23;;;;;;;4.83;4.33;;;;;;;29.27;30.56;95066.69;4899034;29;20433;-82
2021/07/25 10:34:52;;;;;;;12.43;5.63;;;;;;;29.32;29.89;95060.56;4899086;29;20488;-82
2021/07/25 10:37:19;;;;;;;5.00;4.50;;;;;;;29.26;31.04;95061.53;4898851;29;20580;-83
2021/07/25 10:39:50;;;;;;;4.80;4.30;;;;;;;29.32;32.70;95057.84;4898596;29;20464;-83
2021/07/25 10:42:22;;;;;;;6.20;5.00;;;;;;;29.31;29.78;95053.50;4898280;29;20463;-83
2021/07/25 10:44:49;;;;;;;5.50;4.80;;;;;;;29.39;29.31;95053.09;4898586;29;20505;-83
2021/07/25 10:47:27;;;;;;;5.30;4.80;;;;;;;29.51;29.97;95047.69;4898587;29;20461;-83
2021/07/25 10:50:05;;;;;;;5.50;4.13;;;;;;;29.60;29.68;95055.13;4898167;29;20466;-81
2021/07/25 10:53:02;;;;;;;5.10;4.70;;;;;;;29.58;33.14;95048.34;4898449;29;21221;-81
2021/07/25 10:55:48;;;;;;;5.07;4.70;;;;;;;29.72;31.46;95040.69;4898088;29;20540;-82
2021/07/25 10:58:20;;;;;;;7.30;5.20;;;;;;;29.65;30.33;95045.47;4898234;29;20475;-82
2021/07/25 11:00:49;;;;;;;4.87;4.47;;;;;;;29.65;31.57;95029.22;4852503;29;20440;-82
2021/07/25 11:03:44;;;;;;;5.03;4.60;;;;;;;29.75;32.03;95032.91;4902301;29;20441;-82
2021/07/25 11:06:31;;;;;;;5.13;4.73;;;;;;;29.39;30.65;95028.75;4902260;29;20452;-82
2021/07/25 11:08:58;;;;;;;9.17;4.70;;;;;;;29.52;30.96;95036.63;4902482;29;20821;-81
2021/07/25 11:11:55;;;;;;;6.23;4.70;;;;;;;29.50;30.39;95035.22;4901931;29;20447;-81
2021/07/25 11:15:09;;;;;;;5.37;4.97;;;;;;;29.58;31.17;95027.50;4825882;29;20491;-81
2021/07/25 11:17:54;;;;;;;5.37;4.90;;;;;;;29.63;31.20;95023.25;4771869;30;20451;-81
2021/07/25 11:20:45;;;;;;;5.40;4.90;;;;;;;29.57;32.12;95034.00;4771755;30;20558;-82
2021/07/25 11:23:33;;;;;;;6.37;5.77;;;;;;;29.62;32.10;95024.31;4771592;30;20498;-81
2021/07/25 11:26:20;;;;;;;5.60;5.10;;;;;;;29.68;32.79;95028.75;4771551;30;20443;-80
2021/07/25 11:28:47;;;;;;;6.80;6.10;;;;;;;29.70;31.64;95010.38;4772189;30;20451;-81
2021/07/25 11:31:15;;;;;;;5.40;4.90;;;;;;;29.84;31.25;95012.53;4771499;30;21125;-81
2021/07/25 11:33:54;;;;;;;5.40;4.87;;;;;;;29.79;30.81;95009.75;4771286;30;20458;-82
2021/07/25 11:36:23;;;;;;;10.00;6.10;;;;;;;29.71;31.67;95010.13;4771304;30;20454;-81
2021/07/25 11:38:55;;;;;;;6.03;5.43;;;;;;;29.51;31.73;95002.53;4770334;30;20455;-81
2021/07/25 11:41:24;;;;;;;6.07;5.50;;;;;;;29.81;31.49;95009.50;4770365;30;20461;-81
2021/07/25 11:43:54;;;;;;;5.73;5.23;;;;;;;30.07;33.60;95008.84;4770942;30;20972;-81
2021/07/25 11:46:25;;;;;;;6.27;5.73;;;;;;;30.18;31.25;94999.78;4771277;30;20534;-81
2021/07/25 11:49:23;;;;;;;5.57;4.60;;;;;;;30.15;31.47;94996.75;4771406;30;20459;-81
2021/07/25 11:51:57;;;;;;;5.90;5.40;;;;;;;30.04;32.10;94995.78;4825901;29;20828;-81
2021/07/25 11:54:26;;;;;;;6.03;5.47;;;;;;;30.11;32.37;94996.44;4873984;29;20524;-82
2021/07/25 11:56:58;;;;;;;5.53;5.00;;;;;;;30.12;32.05;94997.25;4901382;29;20476;-81
2021/07/25 11:59:26;;;;;;;5.50;5.00;;;;;;;30.24;32.58;94992.56;4901759;29;20471;-82
2021/07/25 12:01:53;;;;;;;5.83;5.30;;;;;;;30.15;31.78;94991.34;4901009;29;20452;-83
2021/07/25 12:04:22;;;;;;;5.43;5.03;;;;;;;29.97;32.14;95000.53;4901136;29;20463;-81
2021/07/25 12:07:05;;;;;;;5.87;5.47;;;;;;;30.06;31.83;95000.94;4900873;29;20437;-82
2021/07/25 12:09:34;;;;;;;6.10;5.60;;;;;;;29.94;32.78;94989.38;4900934;29;20520;-81
2021/07/25 12:12:04;;;;;;;6.37;4.73;;;;;;;30.04;31.22;94984.13;4900530;29;20525;-81
2021/07/25 12:14:37;;;;;;;5.43;4.93;;;;;;;30.06;32.53;94985.53;4901111;29;20882;-83
2021/07/25 12:17:04;;;;;;;8.60;5.47;;;;;;;29.96;32.76;94985.34;4900996;29;20459;-82